Time;durP1;ratioP1;P1;durP2;ratioP2;P2;SDS_P1;SDS_P2;PMS_P1;PMS_P2;Temp;Humidity;BMP_temperature;BMP_pressure;BME280_temperature;BME280_humidity;BME280_pressure;Samples;Min_cycle;Max_cycle;Signal;HPM_P1;HPM_P2
2022/03/20 00:00:06;;;;;;;15.32;9.98;;;;;;;7.53;53.56;101427.84;5025453;28;20034;-75
2022/03/20 00:02:37;;;;;;;12.90;9.05;;;;;;;7.50;53.42;101412.25;5029856;28;20042;-74
2022/03/20 00:05:03;;;;;;;10.80;8.65;;;;;;;7.51;53.51;101424.44;5029214;28;20042;-72
2022/03/20 00:07:33;;;;;;;12.85;10.23;;;;;;;7.49;53.73;101430.69;5029773;28;20074;-74
2022/03/20 00:10:03;;;;;;;13.93;9.82;;;;;;;7.43;53.26;101426.59;5029493;28;20466;-74
2022/03/20 00:12:29;;;;;;;13.60;8.90;;;;;;;7.34;53.65;101417.44;5012045;28;20377;-73
2022/03/20 00:14:54;;;;;;;16.13;9.63;;;;;;;7.33;53.84;101430.63;5029275;28;20033;-73
2022/03/20 00:17:22;;;;;;;12.70;9.50;;;;;;;7.31;54.08;101427.22;5029596;28;20393;-74
2022/03/20 00:19:48;;;;;;;16.88;9.70;;;;;;;7.31;53.99;101427.22;5029061;28;20034;-74
2022/03/20 00:22:15;;;;;;;12.32;9.35;;;;;;;7.27;54.44;101428.31;5029197;28;20148;-74
2022/03/20 00:24:41;;;;;;;14.23;9.60;;;;;;;7.24;54.08;101431.09;5029506;28;20033;-74
2022/03/20 00:27:08;;;;;;;16.77;9.40;;;;;;;7.22;54.52;101428.53;5029436;28;20548;-74
2022/03/20 00:29:34;;;;;;;13.73;9.93;;;;;;;7.18;54.69;101436.66;5007845;28;20029;-75
2022/03/20 00:32:00;;;;;;;12.13;9.00;;;;;;;7.14;54.91;101435.06;5029572;28;20025;-74
2022/03/20 00:34:25;;;;;;;15.77;9.98;;;;;;;7.12;55.24;101444.81;5028643;28;20040;-72
2022/03/20 00:36:51;;;;;;;13.82;9.75;;;;;;;7.09;55.44;101445.81;5028304;28;20124;-73
2022/03/20 00:39:16;;;;;;;14.27;9.68;;;;;;;7.06;55.59;101453.00;5028096;28;20117;-74
2022/03/20 00:41:42;;;;;;;13.50;10.05;;;;;;;7.06;56.11;101447.75;5029360;28;20088;-73
2022/03/20 00:44:07;;;;;;;14.00;10.45;;;;;;;7.07;55.99;101449.47;5028934;28;20029;-74
2022/03/20 00:46:33;;;;;;;13.50;9.90;;;;;;;7.07;56.41;101441.56;5029307;28;20114;-74
2022/03/20 00:48:58;;;;;;;13.45;9.65;;;;;;;7.05;56.19;101446.03;5028561;28;20029;-73
2022/03/20 00:51:24;;;;;;;13.45;9.20;;;;;;;7.05;56.08;101440.78;5028531;28;20044;-74
2022/03/20 00:53:49;;;;;;;12.85;8.65;;;;;;;7.02;56.60;101446.16;5028919;28;20025;-73
2022/03/20 00:56:15;;;;;;;11.90;9.25;;;;;;;6.97;56.44;101442.00;5029224;28;20033;-73
2022/03/20 00:58:40;;;;;;;13.50;9.20;;;;;;;6.95;56.46;101435.97;5029462;28;20088;-74
2022/03/20 01:01:08;;;;;;;13.40;9.02;;;;;;;6.93;56.92;101444.84;5029101;28;20033;-73
2022/03/20 01:03:33;;;;;;;10.50;8.50;;;;;;;6.94;57.18;101444.78;5025345;28;20113;-74
2022/03/20 01:05:59;;;;;;;14.32;9.88;;;;;;;6.95;56.71;101441.22;5028343;28;20029;-73
2022/03/20 01:08:24;;;;;;;14.90;9.27;;;;;;;6.95;57.21;101441.22;5029029;28;20114;-72
2022/03/20 01:10:50;;;;;;;14.80;9.30;;;;;;;6.94;57.05;101444.78;5027762;28;20036;-74
2022/03/20 01:13:16;;;;;;;14.23;9.10;;;;;;;6.91;57.20;101437.06;5029190;28;20129;-76
2022/03/20 01:15:42;;;;;;;15.98;9.02;;;;;;;6.91;57.22;101441.44;5028628;28;20029;-73
2022/03/20 01:18:08;;;;;;;14.32;9.20;;;;;;;6.90;57.62;101443.22;5028940;28;20030;-74
2022/03/20 01:20:34;;;;;;;13.20;8.95;;;;;;;6.89;57.76;101436.25;5028597;28;20334;-74
2022/03/20 01:23:00;;;;;;;11.73;8.93;;;;;;;6.86;58.22;101436.44;5028347;28;20052;-74
2022/03/20 01:25:25;;;;;;;12.40;8.70;;;;;;;6.86;58.23;101440.81;5028935;28;20090;-73
2022/03/20 01:27:51;;;;;;;15.13;9.68;;;;;;;6.86;58.13;101441.69;5028797;28;20037;-74
2022/03/20 01:30:16;;;;;;;14.70;9.00;;;;;;;6.86;58.65;101436.44;5028953;28;20041;-74
2022/03/20 01:32:42;;;;;;;9.88;8.63;;;;;;;6.84;58.75;101438.25;5029073;28;20568;-73
2022/03/20 01:35:09;;;;;;;11.98;8.80;;;;;;;6.84;58.83;101433.00;5028828;28;20053;-73
2022/03/20 01:37:36;;;;;;;13.48;10.05;;;;;;;6.82;58.96;101441.91;5028070;28;20029;-73
2022/03/20 01:40:04;;;;;;;14.38;8.88;;;;;;;6.82;59.25;101436.66;5028203;28;20571;-74
2022/03/20 01:42:29;;;;;;;11.15;8.48;;;;;;;6.82;59.46;101445.38;5029174;28;20033;-72
2022/03/20 01:44:55;;;;;;;12.15;8.77;;;;;;;6.84;59.55;101438.25;5028328;28;20179;-73
2022/03/20 01:47:21;;;;;;;13.82;8.90;;;;;;;6.82;59.34;101445.38;5031196;28;20045;-74
2022/03/20 01:49:46;;;;;;;12.15;8.27;;;;;;;6.81;60.05;101448.91;5030806;28;20124;-75
2022/03/20 01:52:22;;;;;;;12.23;9.32;;;;;;;6.81;59.45;101443.69;5031610;28;20059;-74
2022/03/20 01:54:49;;;;;;;14.38;9.02;;;;;;;6.80;59.91;101441.97;5031732;28;20113;-74
2022/03/20 01:57:20;;;;;;;11.77;8.82;;;;;;;6.81;59.51;101435.81;5032489;28;20373;-75
2022/03/20 01:59:47;;;;;;;13.95;9.60;;;;;;;6.82;59.23;101444.53;5031636;28;20037;-74
2022/03/20 02:02:13;;;;;;;12.15;8.77;;;;;;;6.80;58.76;101444.59;5032563;28;20061;-73
2022/03/20 02:04:39;;;;;;;15.38;8.80;;;;;;;6.79;58.26;101453.38;5029757;28;20061;-74
2022/03/20 02:07:06;;;;;;;14.65;8.57;;;;;;;6.78;58.42;101454.28;5028575;28;20061;-73
2022/03/20 02:09:34;;;;;;;12.85;8.88;;;;;;;6.79;57.81;101450.75;5024481;28;20482;-73
2022/03/20 02:11:59;;;;;;;12.98;9.57;;;;;;;6.80;57.58;101448.97;5031603;28;20029;-73
2022/03/20 02:14:25;;;;;;;14.48;8.75;;;;;;;6.79;57.33;101450.75;5013934;28;20033;-74
2022/03/20 02:16:51;;;;;;;14.88;8.88;;;;;;;6.80;57.42;101457.72;5031347;28;20478;-73
2022/03/20 02:19:17;;;;;;;15.35;9.27;;;;;;;6.76;57.12;101450.91;5031743;28;20041;-74
2022/03/20 02:21:44;;;;;;;13.70;9.38;;;;;;;6.78;56.89;101454.28;5013417;28;20041;-74
2022/03/20 02:24:36;;;;;;;11.57;9.23;;;;;;;6.78;56.26;101453.44;5031561;28;20040;-73
2022/03/20 02:27:27;;;;;;;12.30;9.07;;;;;;;6.74;56.10;101457.16;5031265;28;20149;-74
2022/03/20 02:29:59;;;;;;;;;;;;;;;6.72;56.33;101454.59;5029040;28;20069;-74
2022/03/20 02:32:29;;;;;;;14.05;8.70;;;;;;;6.71;55.14;101455.53;5031664;28;19913;-74
2022/03/20 02:34:56;;;;;;;12.18;8.15;;;;;;;6.70;54.51;101466.09;5031434;28;20730;-73
2022/03/20 02:37:24;;;;;;;14.10;8.65;;;;;;;6.70;54.50;101466.94;5031086;28;20041;-74
2022/03/20 02:39:50;;;;;;;12.23;9.38;;;;;;;6.68;54.27;101458.28;5030810;28;20458;-74
2022/03/20 02:42:16;;;;;;;12.10;8.77;;;;;;;6.65;53.45;101463.69;5031071;28;20112;-73
2022/03/20 02:45:00;;;;;;;11.68;8.55;;;;;;;6.64;53.32;101464.59;5030670;28;20037;-73
2022/03/20 02:47:32;;;;;;;11.13;8.52;;;;;;;6.62;53.06;101463.81;5030973;28;20053;-74
2022/03/20 02:50:06;;;;;;;12.93;9.23;;;;;;;6.61;52.80;101462.09;5030628;28;20037;-73
2022/03/20 02:52:54;;;;;;;14.10;9.60;;;;;;;6.60;52.56;101465.66;5030696;28;20051;-74
2022/03/20 02:55:25;;;;;;;10.45;8.55;;;;;;;6.60;52.32;101465.66;5028836;28;20393;-72
2022/03/20 02:57:52;;;;;;;12.70;9.20;;;;;;;6.58;51.49;101472.75;5029218;28;20034;-73
2022/03/20 03:00:21;;;;;;;13.82;8.82;;;;;;;6.56;51.39;101470.19;5030703;28;20549;-74
2022/03/20 03:02:48;;;;;;;9.57;8.57;;;;;;;6.53;51.27;101480.00;5030370;28;20041;-73
2022/03/20 03:05:18;;;;;;;12.95;9.48;;;;;;;6.51;51.20;101481.81;5030490;28;20033;-73
2022/03/20 03:13:16;;;;;;;13.18;9.40;;;;;;;6.52;50.29;101483.53;5028036;28;20037;-73
2022/03/20 03:15:42;;;;;;;13.15;9.02;;;;;;;6.53;49.84;101491.34;5030204;28;20025;-74
2022/03/20 03:18:08;;;;;;;16.30;9.63;;;;;;;6.58;49.92;101483.25;5030100;28;20041;-74
2022/03/20 03:20:33;;;;;;;12.07;8.88;;;;;;;6.61;49.57;101490.97;5030138;28;20040;-72
2022/03/20 03:22:59;;;;;;;11.82;9.15;;;;;;;6.64;49.41;101496.09;5030004;28;20476;-73
2022/03/20 03:25:25;;;;;;;11.38;8.77;;;;;;;6.68;49.13;101495.00;5029938;28;20116;-73
2022/03/20 03:27:51;;;;;;;11.15;8.73;;;;;;;6.71;48.63;101489.63;5029593;28;20077;-74
2022/03/20 03:30:17;;;;;;;10.25;8.57;;;;;;;6.72;48.67;101495.72;5030175;28;20251;-74
2022/03/20 03:32:43;;;;;;;13.38;8.80;;;;;;;6.72;47.89;101491.31;5029838;28;20037;-73
2022/03/20 03:37:54;;;;;;;12.38;8.00;;;;;;;6.76;47.49;101503.41;5029520;28;20041;-73
2022/03/20 03:40:20;;;;;;;12.18;8.55;;;;;;;6.79;47.41;101511.09;5029879;28;20394;-73
2022/03/20 03:42:46;;;;;;;12.48;8.38;;;;;;;6.85;47.63;101508.19;5029226;28;20025;-73
2022/03/20 03:45:12;;;;;;;10.88;7.93;;;;;;;6.87;48.10;101511.63;5029369;28;20124;-73
2022/03/20 03:47:40;;;;;;;14.68;9.63;;;;;;;6.87;48.15;101514.25;5029655;28;20039;-74
2022/03/20 03:50:07;;;;;;;12.20;8.98;;;;;;;6.90;48.96;101521.94;5036566;28;20041;-74
2022/03/20 03:52:33;;;;;;;14.98;9.05;;;;;;;6.93;49.29;101520.97;5025646;28;20036;-73
2022/03/20 03:54:59;;;;;;;13.05;8.82;;;;;;;6.96;47.76;101521.66;5029630;28;20026;-74
2022/03/20 03:57:24;;;;;;;12.15;8.63;;;;;;;6.97;47.48;101523.38;5029868;28;20349;-74
2022/03/20 03:59:50;;;;;;;11.27;8.82;;;;;;;7.00;47.13;101517.13;5029164;28;20413;-73
2022/03/20 04:02:15;;;;;;;11.10;8.07;;;;;;;7.04;47.44;101529.19;5029981;28;20048;-75
2022/03/20 04:04:41;;;;;;;12.00;9.48;;;;;;;7.03;48.80;101531.88;5029599;28;20056;-73
2022/03/20 04:07:07;;;;;;;10.63;9.05;;;;;;;7.05;48.17;101527.41;5027798;28;20470;-74
2022/03/20 04:09:33;;;;;;;12.90;8.32;;;;;;;7.04;48.51;101534.44;5025840;28;20161;-74
2022/03/20 04:11:59;;;;;;;14.57;8.68;;;;;;;7.03;47.47;101535.34;5029458;28;20040;-74
2022/03/20 04:14:25;;;;;;;9.88;8.10;;;;;;;7.01;47.68;101533.75;5029408;28;20122;-74
2022/03/20 04:16:54;;;;;;;12.23;8.63;;;;;;;6.99;47.55;101534.66;5035991;28;20130;-72
2022/03/20 04:19:19;;;;;;;11.63;8.75;;;;;;;6.99;47.70;101542.53;5029281;28;20051;-73
2022/03/20 04:21:45;;;;;;;9.25;8.27;;;;;;;6.96;47.64;101534.78;5029035;28;20029;-73
2022/03/20 04:24:11;;;;;;;11.80;8.43;;;;;;;6.95;47.09;101540.13;5029585;28;20033;-73
2022/03/20 04:26:36;;;;;;;14.23;8.20;;;;;;;6.91;47.27;101541.19;5029430;28;20033;-73
2022/03/20 04:29:02;;;;;;;11.73;8.35;;;;;;;6.87;47.66;101540.47;5028643;28;20038;-73
2022/03/20 04:31:28;;;;;;;11.60;7.78;;;;;;;6.82;47.30;101542.47;5029196;28;20386;-73
2022/03/20 04:33:54;;;;;;;9.75;8.55;;;;;;;6.79;47.78;101539.97;5028974;28;20116;-74
2022/03/20 04:36:22;;;;;;;11.43;8.10;;;;;;;6.75;47.64;101538.41;5028739;28;20112;-74
2022/03/20 04:38:50;;;;;;;10.00;8.20;;;;;;;6.76;47.27;101540.13;5028781;28;20052;-74
2022/03/20 04:41:17;;;;;;;12.93;7.97;;;;;;;6.76;47.79;101550.63;5029125;28;20407;-73
2022/03/20 04:43:50;;;;;;;11.63;8.40;;;;;;;6.79;47.43;101549.59;5028830;28;20044;-74
2022/03/20 04:46:16;;;;;;;11.63;9.00;;;;;;;6.78;47.37;101543.50;5028832;28;20045;-72
2022/03/20 04:59:39;;;;;;;11.00;8.27;;;;;;;6.67;47.81;101550.16;5025492;28;20072;-74
2022/03/20 05:02:06;;;;;;;11.77;7.95;;;;;;;6.64;48.13;101556.41;5028380;28;20037;-75
2022/03/20 05:04:31;;;;;;;8.88;7.97;;;;;;;6.62;47.73;101558.25;5028811;28;20064;-72
2022/03/20 05:06:57;;;;;;;11.75;8.30;;;;;;;6.57;48.63;101555.00;5028207;28;20443;-73
2022/03/20 05:14:51;;;;;;;10.88;8.05;;;;;;;6.55;48.90;101567.31;5026798;28;20041;-72
2022/03/20 05:17:16;;;;;;;13.55;8.43;;;;;;;6.52;48.57;101567.47;5028780;28;20033;-74
2022/03/20 05:19:42;;;;;;;13.32;8.15;;;;;;;6.51;48.60;101571.00;5028326;28;20422;-75
2022/03/20 05:22:10;;;;;;;9.48;8.38;;;;;;;6.48;49.18;101573.78;5030756;28;20108;-73
2022/03/20 05:24:36;;;;;;;10.30;7.75;;;;;;;6.48;48.96;101571.16;5033059;28;20381;-73
2022/03/20 05:27:02;;;;;;;9.40;8.00;;;;;;;6.45;48.99;101576.50;5032343;28;20048;-73
2022/03/20 05:29:27;;;;;;;9.50;8.20;;;;;;;6.42;49.54;101579.28;5032782;28;20045;-74
2022/03/20 05:31:53;;;;;;;13.05;7.95;;;;;;;6.39;49.85;101577.63;5031993;28;20116;-74
2022/03/20 05:34:20;;;;;;;11.95;8.57;;;;;;;6.41;49.76;101585.44;5032250;28;20056;-74
2022/03/20 05:36:46;;;;;;;12.98;8.40;;;;;;;6.41;49.49;101588.06;5031852;28;20030;-73
2022/03/20 05:39:12;;;;;;;12.63;7.70;;;;;;;6.42;49.82;101587.16;5032308;28;20063;-73
2022/03/20 05:41:47;;;;;;;10.30;8.35;;;;;;;6.43;50.13;101591.44;5032510;28;20104;-74
2022/03/20 05:44:13;;;;;;;12.93;8.75;;;;;;;6.44;50.19;101598.41;5032713;28;20421;-72
2022/03/20 05:49:13;;;;;;;11.30;8.50;;;;;;;6.47;49.97;101608.78;4991015;28;20042;-80
2022/03/20 05:51:40;;;;;;;12.82;8.35;;;;;;;6.50;49.45;101616.50;4976402;28;20041;-80
2022/03/20 05:54:06;;;;;;;11.95;8.65;;;;;;;6.52;49.97;101615.53;4993599;28;20390;-79
2022/03/20 05:59:18;;;;;;;13.68;8.70;;;;;;;6.56;49.18;101621.47;4991737;28;20117;-79
2022/03/20 06:01:44;;;;;;;11.93;8.82;;;;;;;6.54;49.35;101618.91;4993549;28;20029;-79
2022/03/20 06:04:10;;;;;;;15.25;8.90;;;;;;;6.56;49.39;101621.47;4976294;28;20034;-79
2022/03/20 06:06:37;;;;;;;14.30;9.18;;;;;;;6.57;49.57;101628.44;4960340;28;20502;-79
2022/03/20 06:09:06;;;;;;;11.32;9.52;;;;;;;6.59;49.58;101631.84;4995936;28;20517;-78
2022/03/20 06:11:34;;;;;;;15.27;9.27;;;;;;;6.61;49.68;101634.38;4993774;28;20535;-79
2022/03/20 06:14:01;;;;;;;11.45;9.85;;;;;;;6.65;49.58;101631.59;4993457;28;20058;-79
2022/03/20 06:16:28;;;;;;;12.38;9.70;;;;;;;6.64;49.37;101640.38;4993495;28;20045;-78
2022/03/20 06:18:54;;;;;;;14.52;9.63;;;;;;;6.65;49.55;101644.72;4992724;28;20070;-78
2022/03/20 06:21:20;;;;;;;12.70;8.50;;;;;;;6.70;49.19;101650.59;4993812;28;20037;-78
2022/03/20 06:23:45;;;;;;;12.88;8.93;;;;;;;6.73;49.58;101655.69;4975897;28;20030;-79
2022/03/20 06:26:11;;;;;;;10.93;9.52;;;;;;;6.77;49.19;101652.03;4993458;28;20042;-79
2022/03/20 06:28:41;;;;;;;13.45;9.70;;;;;;;6.83;49.31;101661.41;4993594;28;20045;-78
2022/03/20 06:31:12;;;;;;;14.07;10.23;;;;;;;6.84;48.97;101658.69;4989887;28;20479;-78
2022/03/20 06:33:38;;;;;;;13.80;9.88;;;;;;;6.83;48.61;101656.97;4973024;28;20286;-78
2022/03/20 06:36:05;;;;;;;12.68;9.00;;;;;;;6.86;48.98;101656.88;4984538;28;20042;-78
2022/03/20 06:38:32;;;;;;;11.70;8.90;;;;;;;6.85;48.94;101662.16;4993225;28;20034;-78
2022/03/20 06:40:58;;;;;;;14.73;9.85;;;;;;;6.84;48.98;101668.34;4992867;28;20026;-78
2022/03/20 06:43:27;;;;;;;18.55;10.10;;;;;;;6.83;49.05;101674.53;4993376;28;20050;-78
2022/03/20 06:45:56;;;;;;;11.48;9.75;;;;;;;6.79;49.00;101665.06;4992899;28;20058;-78
2022/03/20 06:48:24;;;;;;;12.97;10.97;;;;;;;6.76;48.81;101676.56;4992892;28;20117;-78
2022/03/20 06:50:50;;;;;;;14.88;10.02;;;;;;;6.78;49.50;101674.72;4993233;28;20286;-78
2022/03/20 06:53:18;;;;;;;16.98;11.13;;;;;;;6.81;49.47;101676.34;4993271;28;20036;-78
2022/03/20 06:55:45;;;;;;;12.18;10.43;;;;;;;6.82;49.25;101668.44;4993270;28;20441;-79
2022/03/20 06:58:11;;;;;;;12.88;10.80;;;;;;;6.85;48.90;101681.41;4992824;28;20030;-78
2022/03/20 07:00:37;;;;;;;13.75;10.77;;;;;;;6.92;49.15;101682.84;4975539;28;20470;-78
2022/03/20 07:03:06;;;;;;;16.80;11.00;;;;;;;7.08;48.73;101676.91;4991319;28;20036;-78
2022/03/20 07:05:32;;;;;;;14.40;11.27;;;;;;;7.18;48.31;101686.09;4993485;28;20022;-78
2022/03/20 07:07:59;;;;;;;15.63;11.30;;;;;;;7.32;48.04;101686.28;4993130;28;20494;-77
2022/03/20 07:10:25;;;;;;;12.25;10.65;;;;;;;7.42;47.33;101687.59;4993649;28;20030;-78
2022/03/20 07:13:48;;;;;;;15.43;11.32;;;;;;;7.58;47.17;101688.56;4994465;28;20038;-78
2022/03/20 07:15:49;;;;;;;17.02;11.57;;;;;;;7.83;46.95;101689.09;4999223;28;20113;-77
2022/03/20 07:18:17;;;;;;;17.20;11.95;;;;;;;7.96;46.13;101699.88;4982803;28;20069;-77
2022/03/20 07:20:44;;;;;;;16.80;11.50;;;;;;;8.23;45.32;101697.69;5001089;28;20028;-78
2022/03/20 07:23:11;;;;;;;16.17;12.25;;;;;;;8.45;44.97;101695.72;4997787;28;20121;-77
2022/03/20 07:31:08;;;;;;;16.48;12.15;;;;;;;9.34;43.00;101700.69;4988917;28;20034;-78
2022/03/20 07:33:34;;;;;;;18.85;13.02;;;;;;;9.19;42.21;101712.03;4988315;28;20030;-77
2022/03/20 07:36:00;;;;;;;18.55;13.85;;;;;;;9.12;42.88;101705.41;4991938;28;20042;-78
2022/03/20 07:38:27;;;;;;;18.08;12.70;;;;;;;9.11;42.76;101714.25;4992484;28;20435;-79
2022/03/20 07:40:54;;;;;;;17.77;13.00;;;;;;;9.11;43.40;101711.59;4993249;28;20045;-76
2022/03/20 07:43:19;;;;;;;17.98;13.38;;;;;;;9.14;44.06;101705.31;4993053;28;20517;-79
2022/03/20 07:45:45;;;;;;;17.38;13.68;;;;;;;9.17;44.09;101713.91;4991942;28;20062;-79
2022/03/20 07:48:11;;;;;;;16.42;12.45;;;;;;;9.21;44.33;101719.84;4989425;28;20046;-78
2022/03/20 07:50:36;;;;;;;21.83;13.95;;;;;;;9.19;43.54;101706.75;4989985;28;20523;-78
2022/03/20 07:53:03;;;;;;;22.17;14.15;;;;;;;9.20;43.93;101708.47;4989299;28;20098;-78
2022/03/20 07:55:28;;;;;;;18.15;14.43;;;;;;;9.22;44.34;101722.41;4991347;28;20042;-76
2022/03/20 07:58:00;;;;;;;19.85;13.80;;;;;;;9.25;43.70;101716.97;4991524;28;20041;-76
2022/03/20 08:00:26;;;;;;;22.52;14.85;;;;;;;9.35;43.83;101712.09;4990974;28;20167;-79
2022/03/20 08:02:51;;;;;;;21.85;14.55;;;;;;;9.36;43.59;101712.00;4990570;28;20475;-76
2022/03/20 08:05:18;;;;;;;19.85;14.73;;;;;;;9.49;43.56;101713.94;4992258;28;20038;-78
2022/03/20 08:07:43;;;;;;;20.77;14.70;;;;;;;9.53;43.15;101711.09;4993522;28;20054;-78
2022/03/20 08:10:11;;;;;;;21.58;15.25;;;;;;;9.58;43.40;101713.47;5001389;28;20038;-77
2022/03/20 08:12:38;;;;;;;24.75;14.88;;;;;;;9.54;43.37;101717.22;4997954;28;20070;-78
2022/03/20 08:15:05;;;;;;;20.10;14.90;;;;;;;9.54;42.76;101717.22;4997523;28;20046;-77
2022/03/20 08:17:31;;;;;;;24.30;15.23;;;;;;;9.60;43.00;101722.16;5001509;28;20363;-78
2022/03/20 08:19:57;;;;;;;21.90;15.80;;;;;;;9.67;42.76;101712.94;5000120;28;20050;-78
2022/03/20 08:22:24;;;;;;;21.92;16.25;;;;;;;9.76;42.53;101712.44;4998905;28;20121;-77
2022/03/20 08:24:49;;;;;;;20.88;15.38;;;;;;;9.74;42.89;101709.91;4993392;28;20112;-78
2022/03/20 08:27:15;;;;;;;24.45;15.10;;;;;;;9.69;43.28;101717.22;4994018;28;20038;-78
2022/03/20 08:29:42;;;;;;;23.15;15.93;;;;;;;9.75;43.69;101718.66;4992350;28;20042;-77
2022/03/20 08:32:08;;;;;;;24.17;15.57;;;;;;;9.83;43.04;101719.09;4990842;28;20057;-76
2022/03/20 08:34:35;;;;;;;22.02;15.55;;;;;;;9.87;43.53;101717.97;4987235;28;20038;-77
2022/03/20 08:37:00;;;;;;;23.02;16.35;;;;;;;10.00;43.38;101721.63;4992436;28;20467;-77
2022/03/20 08:39:26;;;;;;;22.15;16.15;;;;;;;10.11;43.37;101721.88;4992753;28;20057;-74
2022/03/20 08:41:52;;;;;;;23.95;16.05;;;;;;;10.21;43.32;101714.31;4989956;28;20410;-79
2022/03/20 08:44:17;;;;;;;22.00;15.48;;;;;;;10.30;43.06;101708.50;4990972;28;20034;-77
2022/03/20 08:46:43;;;;;;;17.95;14.52;;;;;;;10.37;42.33;101709.00;4991135;28;20352;-79
2022/03/20 08:49:09;;;;;;;21.17;15.50;;;;;;;10.44;43.51;101710.31;4990802;28;20042;-78
2022/03/20 08:51:39;;;;;;;20.48;14.73;;;;;;;10.60;42.98;101711.16;4991082;28;20030;-79
2022/03/20 08:54:05;;;;;;;23.23;15.02;;;;;;;10.64;42.91;101713.50;4990465;28;20109;-78
2022/03/20 08:56:31;;;;;;;22.50;15.30;;;;;;;10.72;42.33;101712.22;4992519;28;20172;-78
2022/03/20 08:58:57;;;;;;;22.15;16.00;;;;;;;10.77;42.03;101708.34;4994350;28;20070;-75
2022/03/20 09:01:23;;;;;;;19.85;14.70;;;;;;;10.78;42.70;101715.31;4995350;28;20034;-79
2022/03/20 09:03:52;;;;;;;21.15;15.38;;;;;;;10.84;41.70;101711.50;4994562;28;20101;-74
2022/03/20 09:06:19;;;;;;;24.73;16.90;;;;;;;10.75;41.44;101710.22;4977933;28;20498;-82
2022/03/20 09:08:45;;;;;;;27.60;17.30;;;;;;;10.64;41.06;101710.03;4995847;28;20180;-76
2022/03/20 09:11:13;;;;;;;21.83;15.35;;;;;;;10.66;41.39;101711.63;4997379;28;20046;-82
2022/03/20 09:13:41;;;;;;;21.17;15.38;;;;;;;10.68;41.24;101712.38;4997508;28;20027;-83
2022/03/20 09:19:00;;;;;;;21.10;15.40;;;;;;;10.64;41.22;101710.03;4992879;28;20045;-81
2022/03/20 09:21:33;;;;;;;20.73;15.35;;;;;;;10.57;41.87;101708.69;4995070;28;20125;-83
2022/03/20 09:24:00;;;;;;;23.35;15.65;;;;;;;10.61;41.33;101702.25;4994137;28;20066;-76
2022/03/20 09:26:26;;;;;;;24.02;15.65;;;;;;;10.73;41.52;101709.47;4996251;28;20112;-80
2022/03/20 09:28:52;;;;;;;18.50;14.30;;;;;;;10.86;40.96;101699.88;4994584;28;20034;-80
2022/03/20 09:31:19;;;;;;;21.02;15.40;;;;;;;10.95;41.00;101703.75;4994384;28;20046;-76
2022/03/20 09:33:45;;;;;;;22.75;16.48;;;;;;;10.99;41.02;101700.84;4993719;28;20089;-77
2022/03/20 09:36:10;;;;;;;20.95;15.82;;;;;;;11.06;41.18;101691.59;4993977;28;20034;-78
2022/03/20 09:38:36;;;;;;;22.30;15.60;;;;;;;11.14;40.95;101695.53;4994615;28;20042;-79
2022/03/20 09:41:08;;;;;;;18.38;14.60;;;;;;;11.08;41.08;101692.31;4993104;28;20483;-78
2022/03/20 09:43:36;;;;;;;23.75;15.30;;;;;;;10.99;40.73;101686.78;4990749;28;20327;-82
2022/03/20 09:46:02;;;;;;;21.42;15.15;;;;;;;10.89;40.66;101690.94;4993769;28;20499;-78
2022/03/20 09:48:29;;;;;;;21.35;15.38;;;;;;;10.96;41.05;101685.16;4993913;28;20057;-77
2022/03/20 09:50:57;;;;;;;20.73;15.27;;;;;;;11.06;41.36;101680.19;4994298;28;20034;-78
2022/03/20 09:53:23;;;;;;;18.88;15.15;;;;;;;11.19;40.73;101682.91;4993740;28;20475;-79
2022/03/20 09:55:49;;;;;;;19.77;15.98;;;;;;;11.31;40.97;101672.41;4993546;28;20034;-79
2022/03/20 09:58:15;;;;;;;19.52;15.30;;;;;;;11.40;40.48;101676.28;4994028;28;20034;-79
2022/03/20 10:00:41;;;;;;;21.77;15.43;;;;;;;11.45;40.37;101675.03;4993539;28;20044;-77
2022/03/20 10:03:18;;;;;;;19.73;15.35;;;;;;;11.44;39.70;101675.13;4992708;28;20034;-76
2022/03/20 10:06:16;;;;;;;24.85;15.20;;;;;;;11.44;40.07;101669.84;4992507;28;20109;-78
2022/03/20 10:08:56;;;;;;;22.50;14.85;;;;;;;11.40;38.90;101671.00;4990049;28;20030;-80
2022/03/20 10:11:23;;;;;;;18.50;15.13;;;;;;;11.34;39.32;101666.09;4994449;28;20042;-75
2022/03/20 10:14:09;;;;;;;24.98;16.25;;;;;;;11.37;39.87;101665.88;4975595;28;20435;-77
2022/03/20 10:16:36;;;;;;;20.33;15.70;;;;;;;11.41;40.31;101656.84;4989381;28;20034;-77
2022/03/20 10:19:20;;;;;;;21.30;15.77;;;;;;;11.38;39.45;101665.78;4992746;28;20471;-78
2022/03/20 10:21:46;;;;;;;19.70;15.45;;;;;;;11.39;39.01;101658.72;4991086;28;20031;-78
2022/03/20 10:24:16;;;;;;;23.63;14.77;;;;;;;11.42;39.02;101658.53;4993287;28;20030;-78
2022/03/20 10:26:42;;;;;;;19.00;14.35;;;;;;;11.41;39.39;101657.69;4993096;28;20034;-78
2022/03/20 10:29:16;;;;;;;19.02;14.75;;;;;;;11.45;38.43;101658.31;4993292;28;20337;-78
2022/03/20 10:31:53;;;;;;;22.20;15.23;;;;;;;11.48;38.10;101655.50;4990052;28;20064;-78
2022/03/20 10:34:25;;;;;;;19.45;14.07;;;;;;;11.49;38.54;101649.25;4993658;28;20037;-78
2022/03/20 10:36:52;;;;;;;19.38;14.75;;;;;;;11.51;39.27;101650.00;4974853;28;20034;-77
2022/03/20 10:39:19;;;;;;;26.98;16.58;;;;;;;11.54;39.57;101652.47;4993201;28;20045;-78
2022/03/20 10:41:48;;;;;;;22.65;15.38;;;;;;;11.50;39.77;101650.94;4992604;28;20041;-79
2022/03/20 10:44:18;;;;;;;19.75;15.45;;;;;;;11.51;39.79;101639.44;4992961;28;20113;-79
2022/03/20 10:47:13;;;;;;;20.08;16.05;;;;;;;11.58;39.62;101622.22;4992187;28;20079;-78
2022/03/20 10:49:41;;;;;;;20.38;16.05;;;;;;;11.62;40.22;101623.72;4992247;28;20528;-77
2022/03/20 10:52:17;;;;;;;20.08;15.85;;;;;;;11.66;39.19;101625.25;4993300;28;20034;-77
2022/03/20 10:54:50;;;;;;;21.42;15.95;;;;;;;11.66;39.50;101625.25;4989658;28;20034;-77
2022/03/20 10:57:16;;;;;;;23.80;15.65;;;;;;;11.66;39.29;101627.88;4992269;28;20031;-78
2022/03/20 10:59:42;;;;;;;21.58;14.38;;;;;;;11.72;39.28;101618.69;4992015;28;20420;-78
2022/03/20 11:02:22;;;;;;;20.27;13.48;;;;;;;11.78;37.76;101624.44;4991742;28;20030;-77
2022/03/20 11:04:48;;;;;;;18.08;13.05;;;;;;;11.84;37.05;101621.41;4989268;28;20030;-77
2022/03/20 11:07:16;;;;;;;18.83;14.65;;;;;;;11.82;36.98;101623.31;4991907;28;20173;-77
2022/03/20 11:09:49;;;;;;;20.33;15.65;;;;;;;11.82;37.17;101620.66;4988905;28;20045;-77
2022/03/20 11:12:24;;;;;;;18.92;14.38;;;;;;;11.85;37.79;101617.81;4981106;28;20042;-79
2022/03/20 11:14:49;;;;;;;20.17;15.18;;;;;;;11.96;37.26;101613.63;5003494;28;20088;-77
2022/03/20 11:17:19;;;;;;;17.58;14.02;;;;;;;12.04;36.59;101608.66;4989367;28;20047;-78
2022/03/20 11:19:53;;;;;;;19.77;13.80;;;;;;;12.07;35.83;101608.47;5007776;28;20105;-77
2022/03/20 11:22:20;;;;;;;18.08;14.23;;;;;;;12.08;35.67;101611.00;4997393;28;20084;-78
2022/03/20 11:24:51;;;;;;;16.58;13.52;;;;;;;12.09;35.16;101609.19;4992944;28;20038;-78
2022/03/20 11:27:26;;;;;;;;;;;;;;;12.08;35.08;101604.84;4993303;28;20035;-78
2022/03/20 11:30:07;;;;;;;20.40;14.27;;;;;;;12.20;35.70;101588.16;4992480;28;19913;-78
2022/03/20 11:32:34;;;;;;;18.75;14.25;;;;;;;12.31;35.74;101590.94;4992426;28;20101;-77
2022/03/20 11:35:03;;;;;;;17.52;13.70;;;;;;;12.35;35.20;101580.97;4991884;28;20073;-78
2022/03/20 11:37:45;;;;;;;20.10;14.10;;;;;;;12.44;34.21;101586.47;4991951;28;20053;-77
2022/03/20 11:40:19;;;;;;;21.52;13.70;;;;;;;12.50;33.65;101591.34;4988680;28;20043;-78
2022/03/20 11:42:45;;;;;;;21.90;12.63;;;;;;;12.62;33.80;101585.22;4992341;28;20356;-78
2022/03/20 11:45:12;;;;;;;19.42;15.20;;;;;;;12.72;34.33;101580.94;4991811;28;20042;-80
2022/03/20 11:48:14;;;;;;;18.30;14.07;;;;;;;12.87;33.54;101573.75;4992128;28;20078;-77
2022/03/20 11:50:44;;;;;;;18.42;13.90;;;;;;;13.11;33.70;101571.16;4954235;28;20054;-79
2022/03/20 11:53:10;;;;;;;17.13;13.10;;;;;;;13.33;33.21;101563.38;4991581;28;20026;-77
2022/03/20 11:55:50;;;;;;;18.20;13.55;;;;;;;13.46;31.85;101566.81;4991762;28;20044;-77
2022/03/20 11:58:16;;;;;;;16.42;13.10;;;;;;;13.51;31.36;101562.03;4989340;28;20069;-77
2022/03/20 12:00:44;;;;;;;14.52;12.55;;;;;;;13.66;31.14;101551.25;4991581;28;20034;-78